Terminal Aerodrome Forecast
Issued by NWS

Home | Current Version | Previous Version | Text Only | Print | Product List | Glossary On
Versions: 1 2 3 4 5 6 7 8 9 10 11 12 13 14 15 16 17 18
000
FTUS41 KBTV 280347 AAB
TAFRUT
TAF AMD
KRUT 280347Z 2804/2824 32010G20KT 6SM -SHSN BR SCT015 OVC050
      TEMPO 2804/2808 BKN015
     FM280800 33005KT P6SM SCT015 OVC050
      TEMPO 2808/2812 BKN015
     FM281200 33007KT P6SM SCT020
     FM281800 34007KT P6SM SKC
      AMD LTD TO CLD VIS AND WIND=

USA.gov is the U.S. government's official web portal to all federal, state and local government web resources and services.